createdAt,value
2018-05-25T00:01:52.705Z,20.39
2018-05-25T00:04:20.366Z,20.43
2018-05-25T00:06:47.991Z,20.46
2018-05-25T00:09:15.582Z,20.44
2018-05-25T00:11:43.230Z,20.51
2018-05-25T00:14:10.977Z,20.57
2018-05-25T00:16:38.637Z,20.56
2018-05-25T00:19:06.227Z,20.54
2018-05-25T00:21:33.929Z,20.54
2018-05-25T00:24:01.507Z,20.51
2018-05-25T00:26:29.079Z,20.50
2018-05-25T00:28:56.848Z,20.50
2018-05-25T00:31:24.497Z,20.47
2018-05-25T00:33:52.067Z,20.46
2018-05-25T00:36:19.744Z,20.42
2018-05-25T00:38:47.324Z,20.40
2018-05-25T00:41:14.944Z,20.38
2018-05-25T00:43:42.672Z,20.36
2018-05-25T00:46:10.259Z,20.34
2018-05-25T00:48:37.924Z,20.35
2018-05-25T00:51:05.679Z,20.37
2018-05-25T00:53:33.264Z,20.37
2018-05-25T00:56:00.877Z,20.37
2018-05-25T00:58:28.499Z,20.33
2018-05-25T01:00:56.122Z,20.33
2018-05-25T01:03:23.758Z,20.33
2018-05-25T01:05:51.408Z,20.35
2018-05-25T01:08:19.037Z,20.40
2018-05-25T01:10:46.711Z,20.43
2018-05-25T01:13:14.347Z,20.42
2018-05-25T01:15:41.999Z,20.42
2018-05-25T01:18:09.586Z,20.46
2018-05-25T01:20:37.253Z,20.44
2018-05-25T01:23:04.824Z,20.48
2018-05-25T01:25:32.402Z,20.48
2018-05-25T01:28:00.123Z,20.50
2018-05-25T01:30:27.704Z,20.54
2018-05-25T01:32:56.096Z,20.58
2018-05-25T01:35:24.149Z,20.55
2018-05-25T01:37:51.746Z,20.58
2018-05-25T01:40:19.319Z,20.53
2018-05-25T01:42:47.039Z,20.52
2018-05-25T01:45:14.728Z,20.51
2018-05-25T01:47:42.303Z,20.52
2018-05-25T01:50:10.125Z,20.54
2018-05-25T01:52:37.715Z,20.55
2018-05-25T01:55:05.372Z,20.64
2018-05-25T01:57:33.062Z,20.67
2018-05-25T02:00:00.719Z,20.71
2018-05-25T02:02:28.295Z,20.71
2018-05-25T02:04:56.082Z,20.78
2018-05-25T02:07:23.665Z,20.77
2018-05-25T02:09:51.252Z,20.80
2018-05-25T02:12:18.963Z,20.80
2018-05-25T02:14:46.551Z,20.81
2018-05-25T02:17:14.180Z,20.81
2018-05-25T02:19:41.802Z,20.80
2018-05-25T02:22:09.376Z,20.82
2018-05-25T02:24:37.021Z,20.81
2018-05-25T02:27:04.776Z,20.79
2018-05-25T02:29:32.445Z,20.79
2018-05-25T02:32:00.032Z,20.76
2018-05-25T02:34:27.768Z,20.82
2018-05-25T02:36:55.351Z,20.75
2018-05-25T02:39:22.954Z,20.76
2018-05-25T02:41:50.644Z,20.74
2018-05-25T02:44:18.615Z,20.77
2018-05-25T02:46:46.299Z,20.75
2018-05-25T02:49:14.001Z,20.71
2018-05-25T02:51:42.004Z,20.71
2018-05-25T02:54:09.596Z,20.69
2018-05-25T02:56:37.220Z,20.64
2018-05-25T02:59:04.890Z,20.59
2018-05-25T03:01:32.493Z,20.44
2018-05-25T03:04:00.118Z,20.40
2018-05-25T03:06:27.711Z,20.34
2018-05-25T03:08:55.304Z,20.25
2018-05-25T03:11:23.013Z,20.19
2018-05-25T03:13:50.653Z,20.12
2018-05-25T03:16:18.249Z,20.11
2018-05-25T03:18:46.040Z,20.09
2018-05-25T03:21:13.684Z,20.09
2018-05-25T03:23:41.326Z,20.07
2018-05-25T03:26:09.089Z,20.05
2018-05-25T03:28:36.647Z,20.08
2018-05-25T03:31:04.265Z,20.09
2018-05-25T03:33:32.026Z,20.02
2018-05-25T03:35:59.616Z,20.08
2018-05-25T03:38:27.210Z,20.05
2018-05-25T03:40:54.862Z,20.02
2018-05-25T03:43:22.515Z,20.03
2018-05-25T03:45:50.105Z,20.05
2018-05-25T03:48:17.813Z,20.01
2018-05-25T03:50:45.444Z,20.02
2018-05-25T03:53:13.860Z,20.05
2018-05-25T03:55:41.578Z,20.06
2018-05-25T03:58:09.300Z,20.08
2018-05-25T04:00:48.967Z,20.14
2018-05-25T04:03:16.538Z,20.23
2018-05-25T04:05:44.127Z,20.28
2018-05-25T04:08:11.750Z,20.33
2018-05-25T04:10:39.388Z,20.42
2018-05-25T04:13:07.758Z,20.52
2018-05-25T04:15:35.370Z,20.56
2018-05-25T04:18:02.959Z,20.59
2018-05-25T04:20:30.525Z,20.63
2018-05-25T04:22:58.148Z,20.65
2018-05-25T04:25:25.747Z,20.76
2018-05-25T04:27:53.331Z,20.81
2018-05-25T04:30:21.117Z,20.85
2018-05-25T04:32:48.748Z,20.95
2018-05-25T04:35:16.873Z,21.06
2018-05-25T04:37:44.552Z,21.16
2018-05-25T04:40:12.147Z,21.23
2018-05-25T04:42:39.715Z,21.34
2018-05-25T04:45:07.354Z,21.41
2018-05-25T04:47:34.980Z,21.52
2018-05-25T04:50:02.652Z,21.55
2018-05-25T04:52:30.350Z,21.57
2018-05-25T04:54:58.056Z,21.58
2018-05-25T04:57:25.647Z,21.66
2018-05-25T04:59:53.353Z,21.78
2018-05-25T05:02:20.934Z,21.88
2018-05-25T05:04:48.527Z,22.02
2018-05-25T05:07:16.143Z,22.12
2018-05-25T05:09:43.782Z,22.36
2018-05-25T05:12:11.428Z,22.49
2018-05-25T05:14:39.109Z,22.50
2018-05-25T05:17:06.683Z,22.47
2018-05-25T05:19:34.771Z,22.49
2018-05-25T05:22:02.409Z,22.50
2018-05-25T05:24:30.023Z,22.52
2018-05-25T05:26:57.672Z,22.55
2018-05-25T05:29:26.196Z,22.66
2018-05-25T05:31:53.783Z,22.76
2018-05-25T05:34:21.363Z,22.86
2018-05-25T05:36:49.109Z,22.92
2018-05-25T05:39:16.686Z,23.03
2018-05-25T05:41:44.320Z,23.22
2018-05-25T05:44:12.648Z,23.58
2018-05-25T05:46:40.232Z,23.95
2018-05-25T05:49:07.889Z,24.34
2018-05-25T05:51:35.525Z,24.67
2018-05-25T05:54:03.107Z,24.99
2018-05-25T05:56:30.715Z,25.08
2018-05-25T05:58:58.344Z,24.93
2018-05-25T06:01:25.945Z,24.93
2018-05-25T06:03:54.249Z,25.06
2018-05-25T06:06:21.949Z,24.90
2018-05-25T06:08:49.617Z,24.92
2018-05-25T06:11:17.247Z,24.88
2018-05-25T06:13:44.861Z,24.85
2018-05-25T06:16:12.464Z,24.86
2018-05-25T06:18:40.100Z,24.98
2018-05-25T06:21:07.772Z,25.21
2018-05-25T06:23:35.458Z,25.35
2018-05-25T06:26:03.124Z,25.53
2018-05-25T06:28:30.762Z,25.64
2018-05-25T06:30:58.344Z,25.72
2018-05-25T06:33:26.024Z,25.82
2018-05-25T06:35:53.749Z,25.84
2018-05-25T06:38:21.427Z,26.03
2018-05-25T06:40:49.039Z,26.13
2018-05-25T06:43:16.764Z,26.03
2018-05-25T06:45:45.000Z,26.13
2018-05-25T06:48:12.595Z,26.24
2018-05-25T06:50:40.278Z,26.34
2018-05-25T06:53:07.917Z,26.24
2018-05-25T06:55:35.507Z,26.07
2018-05-25T06:58:03.357Z,25.93
2018-05-25T07:00:30.947Z,25.81
2018-05-25T07:02:58.581Z,25.68
2018-05-25T07:05:26.305Z,25.59
2018-05-25T07:07:53.961Z,25.57
2018-05-25T07:10:21.545Z,25.54
2018-05-25T07:12:49.169Z,25.52
2018-05-25T07:15:16.813Z,25.56
2018-05-25T07:17:44.425Z,25.57
2018-05-25T07:20:12.147Z,25.52
2018-05-25T07:22:39.716Z,25.50
2018-05-25T07:25:07.305Z,25.40
2018-05-25T07:27:35.128Z,25.20
2018-05-25T07:30:02.751Z,25.10
2018-05-25T07:32:30.318Z,24.91
2018-05-25T07:34:57.945Z,24.76
2018-05-25T07:37:25.515Z,24.14
2018-05-25T07:39:53.100Z,23.80
2018-05-25T07:42:20.728Z,23.50
2018-05-25T07:44:48.320Z,23.21
2018-05-25T07:47:15.909Z,22.95
2018-05-25T07:49:43.636Z,22.86
2018-05-25T07:52:12.647Z,22.69
2018-05-25T07:54:40.240Z,22.54
2018-05-25T07:57:07.875Z,22.50
2018-05-25T07:59:35.478Z,22.57
2018-05-25T08:02:03.075Z,22.71
2018-05-25T08:04:30.931Z,22.87
2018-05-25T08:06:58.531Z,23.00
2018-05-25T08:09:28.176Z,22.98
2018-05-25T08:11:55.839Z,23.11
2018-05-25T08:14:23.424Z,23.33
2018-05-25T08:16:51.011Z,23.54
2018-05-25T08:19:18.668Z,23.75
2018-05-25T08:21:46.286Z,23.97
2018-05-25T08:24:13.882Z,24.25
2018-05-25T08:26:41.525Z,24.54
2018-05-25T08:29:09.108Z,24.73
2018-05-25T08:31:36.704Z,24.85
2018-05-25T08:34:04.372Z,25.03
2018-05-25T08:36:31.961Z,25.25
2018-05-25T08:38:59.536Z,25.34
2018-05-25T08:41:27.180Z,25.63
2018-05-25T08:43:54.787Z,25.90
2018-05-25T08:46:22.417Z,25.98
2018-05-25T08:48:50.183Z,25.95
2018-05-25T08:51:17.771Z,26.10
2018-05-25T08:53:45.346Z,26.20
2018-05-25T08:56:12.996Z,26.11
2018-05-25T08:58:40.620Z,25.96
2018-05-25T09:01:08.212Z,26.01
2018-05-25T09:03:35.859Z,26.18
2018-05-25T09:06:03.444Z,26.20
2018-05-25T09:08:31.035Z,26.07
2018-05-25T09:10:58.682Z,26.09
2018-05-25T09:13:26.267Z,26.34
2018-05-25T09:15:53.848Z,26.39
2018-05-25T09:18:21.475Z,26.70
2018-05-25T09:20:49.105Z,26.90
2018-05-25T09:23:16.712Z,27.14
2018-05-25T09:25:44.424Z,27.16
2018-05-25T09:28:12.037Z,27.26
2018-05-25T09:30:39.647Z,27.44
2018-05-25T09:33:07.329Z,27.69
2018-05-25T09:35:35.413Z,27.98
2018-05-25T09:38:02.990Z,28.14
2018-05-25T09:40:30.627Z,28.09
2018-05-25T09:42:58.213Z,27.90
2018-05-25T09:45:25.804Z,28.00
2018-05-25T09:47:53.535Z,27.99
2018-05-25T09:50:21.120Z,27.99
2018-05-25T09:52:48.715Z,28.10
2018-05-25T09:55:16.463Z,28.20
2018-05-25T09:57:55.676Z,28.56
2018-05-25T10:00:25.731Z,28.72
2018-05-25T10:02:53.408Z,28.66
2018-05-25T10:05:21.009Z,28.45
2018-05-25T10:07:49.364Z,28.49
2018-05-25T10:10:16.951Z,28.52
2018-05-25T10:12:44.548Z,28.50
2018-05-25T10:15:12.293Z,28.45
2018-05-25T10:17:39.905Z,28.45
2018-05-25T10:20:07.509Z,28.53
2018-05-25T10:22:35.257Z,28.83
2018-05-25T10:25:02.847Z,28.86
2018-05-25T10:27:30.436Z,28.87
2018-05-25T10:29:58.105Z,28.80
2018-05-25T10:32:25.693Z,28.93
2018-05-25T10:34:53.284Z,29.22
2018-05-25T10:37:20.935Z,29.56
2018-05-25T10:39:48.519Z,29.74
2018-05-25T10:42:16.104Z,30.00
2018-05-25T10:44:43.743Z,30.27
2018-05-25T10:47:13.699Z,30.30
2018-05-25T10:49:41.295Z,30.55
2018-05-25T10:52:09.028Z,30.75
2018-05-25T10:54:36.765Z,30.87
2018-05-25T10:57:04.379Z,30.95
2018-05-25T10:59:32.129Z,30.86
2018-05-25T11:02:00.378Z,30.71
2018-05-25T11:04:27.984Z,30.72
2018-05-25T11:06:55.617Z,31.04
2018-05-25T11:09:23.791Z,31.21
2018-05-25T11:11:51.449Z,31.42
2018-05-25T11:14:19.083Z,31.82
2018-05-25T11:16:46.688Z,31.85
2018-05-25T11:19:14.269Z,31.84
2018-05-25T11:21:41.936Z,31.73
2018-05-25T11:24:09.513Z,31.35
2018-05-25T11:26:37.101Z,31.17
2018-05-25T11:29:04.734Z,30.98
2018-05-25T11:31:32.325Z,30.58
2018-05-25T11:33:59.913Z,30.06
2018-05-25T11:36:27.552Z,29.28
2018-05-25T11:38:55.149Z,29.11
2018-05-25T11:41:22.760Z,28.05
2018-05-25T11:43:50.495Z,26.36
2018-05-25T11:46:18.101Z,24.79
2018-05-25T11:48:45.676Z,22.75
2018-05-25T11:51:13.328Z,22.02
2018-05-25T11:53:40.906Z,21.66
2018-05-25T11:56:08.485Z,21.55
2018-05-25T11:58:36.137Z,21.49
2018-05-25T12:01:03.775Z,21.37
2018-05-25T12:03:31.399Z,21.27
2018-05-25T12:05:59.140Z,21.03
2018-05-25T12:08:26.744Z,20.91
2018-05-25T12:10:54.335Z,20.72
2018-05-25T12:13:21.976Z,20.71
2018-05-25T12:15:50.652Z,20.75
2018-05-25T12:18:18.255Z,20.77
2018-05-25T12:20:45.903Z,20.86
2018-05-25T12:23:13.503Z,21.01
2018-05-25T12:25:41.096Z,21.16
2018-05-25T12:28:08.846Z,21.36
2018-05-25T12:30:36.445Z,21.48
2018-05-25T12:33:04.900Z,21.63
2018-05-25T12:35:32.559Z,21.81
2018-05-25T12:38:00.154Z,21.96
2018-05-25T12:40:28.577Z,22.05
2018-05-25T12:42:56.219Z,22.19
2018-05-25T12:45:23.839Z,22.24
2018-05-25T12:47:51.435Z,22.39
2018-05-25T12:50:19.231Z,22.47
2018-05-25T12:52:46.824Z,22.60
2018-05-25T12:55:14.429Z,22.77
2018-05-25T12:57:42.178Z,22.85
2018-05-25T13:00:10.278Z,22.93
2018-05-25T13:02:38.713Z,22.93
2018-05-25T13:05:06.771Z,22.94
2018-05-25T13:07:34.726Z,22.99
2018-05-25T13:10:02.303Z,23.03
2018-05-25T13:12:29.961Z,23.05
2018-05-25T13:14:58.182Z,23.06
2018-05-25T13:17:25.751Z,23.03
2018-05-25T13:19:53.377Z,22.99
2018-05-25T13:22:20.975Z,23.00
2018-05-25T13:24:48.612Z,22.97
2018-05-25T13:27:16.352Z,22.82
2018-05-25T13:29:43.938Z,22.69
2018-05-25T13:32:11.537Z,22.60
2018-05-25T13:34:39.315Z,22.30
2018-05-25T13:37:06.924Z,21.63
2018-05-25T13:39:34.511Z,21.11
2018-05-25T13:42:02.236Z,20.89
2018-05-25T13:44:29.834Z,20.68
2018-05-25T13:46:57.446Z,20.62
2018-05-25T13:49:25.091Z,20.55
2018-05-25T13:51:52.704Z,20.43
2018-05-25T13:54:20.282Z,20.33
2018-05-25T13:56:47.957Z,20.28
2018-05-25T13:59:15.555Z,20.23
2018-05-25T14:01:43.945Z,20.20
2018-05-25T14:04:12.531Z,20.13
2018-05-25T14:06:41.014Z,20.08
2018-05-25T14:09:08.646Z,20.00
2018-05-25T14:11:36.372Z,19.97
2018-05-25T14:14:04.028Z,19.98
2018-05-25T14:16:31.620Z,19.98
2018-05-25T14:18:59.343Z,19.93
2018-05-25T14:21:26.937Z,19.91
2018-05-25T14:23:54.762Z,19.87
2018-05-25T14:26:22.421Z,19.88
2018-05-25T14:28:50.012Z,19.86
2018-05-25T14:31:17.601Z,19.86
2018-05-25T14:33:45.222Z,19.86
2018-05-25T14:36:12.808Z,19.86
2018-05-25T14:38:40.407Z,19.83
2018-05-25T14:41:08.048Z,19.72
2018-05-25T14:43:35.643Z,19.70
2018-05-25T14:46:03.256Z,19.61
2018-05-25T14:48:31.000Z,19.48
2018-05-25T14:50:58.613Z,19.31
2018-05-25T14:53:26.205Z,19.21
2018-05-25T14:55:53.838Z,19.22
2018-05-25T14:58:24.068Z,19.23
2018-05-25T15:00:53.979Z,19.24
2018-05-25T15:03:21.572Z,19.24
2018-05-25T15:05:49.167Z,19.26
2018-05-25T15:08:16.807Z,19.30
2018-05-25T15:10:45.276Z,19.33
2018-05-25T15:13:12.925Z,19.40
2018-05-25T15:15:40.612Z,19.46
2018-05-25T15:18:08.276Z,19.54
2018-05-25T15:20:35.855Z,19.66
2018-05-25T15:23:03.588Z,19.75
2018-05-25T15:25:31.240Z,19.83
2018-05-25T15:27:58.881Z,19.97
2018-05-25T15:30:26.508Z,20.04
2018-05-25T15:32:54.080Z,20.11
2018-05-25T15:35:21.671Z,20.17
2018-05-25T15:37:49.292Z,20.23
2018-05-25T15:40:18.868Z,20.32
2018-05-25T15:42:46.443Z,20.31
2018-05-25T15:45:14.219Z,20.21
2018-05-25T15:47:41.813Z,20.16
2018-05-25T15:50:09.420Z,20.09
2018-05-25T15:52:37.020Z,20.06
2018-05-25T15:55:04.642Z,20.01
2018-05-25T15:57:32.227Z,20.00
2018-05-25T15:59:59.945Z,20.07
2018-05-25T16:02:27.640Z,20.06
2018-05-25T16:04:55.281Z,20.08
2018-05-25T16:07:22.913Z,20.09
2018-05-25T16:09:50.500Z,20.07
2018-05-25T16:12:18.193Z,20.05
2018-05-25T16:14:45.824Z,19.98
2018-05-25T16:17:13.679Z,19.95
2018-05-25T16:19:43.671Z,19.87
2018-05-25T16:22:11.313Z,19.84
2018-05-25T16:24:38.955Z,19.85
2018-05-25T16:27:06.592Z,19.82
2018-05-25T16:29:34.879Z,19.88
2018-05-25T16:32:02.471Z,19.87
2018-05-25T16:34:30.062Z,19.90
2018-05-25T16:36:57.706Z,19.94
2018-05-25T16:39:25.285Z,19.97
2018-05-25T16:41:52.876Z,19.99
2018-05-25T16:44:20.517Z,20.00
2018-05-25T16:46:48.153Z,19.99
2018-05-25T16:49:15.744Z,20.04
2018-05-25T16:51:43.384Z,20.09
2018-05-25T16:54:10.963Z,20.14
2018-05-25T16:56:38.565Z,20.17
2018-05-25T16:59:06.251Z,20.21
2018-05-25T17:01:33.863Z,20.27
2018-05-25T17:04:01.435Z,20.30
2018-05-25T17:06:29.196Z,20.33
2018-05-25T17:08:56.769Z,20.34
2018-05-25T17:11:24.361Z,20.40
2018-05-25T17:13:52.184Z,20.45
2018-05-25T17:16:19.778Z,20.48
2018-05-25T17:18:47.363Z,20.52
2018-05-25T17:21:15.013Z,20.63
2018-05-25T17:23:42.615Z,20.64
2018-05-25T17:26:10.209Z,20.69
2018-05-25T17:28:37.841Z,20.79
2018-05-25T17:31:05.481Z,20.86
2018-05-25T17:33:33.097Z,20.93
2018-05-25T17:36:00.836Z,21.03
2018-05-25T17:38:28.414Z,21.05
2018-05-25T17:40:57.256Z,21.08
2018-05-25T17:43:25.082Z,21.16
2018-05-25T17:45:54.767Z,21.21
2018-05-25T17:48:22.364Z,21.26
2018-05-25T17:50:50.076Z,21.29
2018-05-25T17:53:17.648Z,21.30
2018-05-25T17:55:45.215Z,21.28
2018-05-25T17:58:12.920Z,21.35
2018-05-25T18:00:40.501Z,21.33
2018-05-25T18:03:08.219Z,21.37
2018-05-25T18:05:35.884Z,21.38
2018-05-25T18:08:03.467Z,21.39
2018-05-25T18:10:31.069Z,21.40
2018-05-25T18:12:59.234Z,21.37
2018-05-25T18:15:26.832Z,21.34
2018-05-25T18:17:54.467Z,21.31
2018-05-25T18:20:22.110Z,21.26
2018-05-25T18:22:49.752Z,21.21
2018-05-25T18:25:17.442Z,21.23
2018-05-25T18:27:45.069Z,21.28
2018-05-25T18:30:12.649Z,21.30
2018-05-25T18:32:40.301Z,21.33
2018-05-25T18:35:08.835Z,21.35
2018-05-25T18:37:36.477Z,21.38
2018-05-25T18:40:04.170Z,21.42
2018-05-25T18:42:31.885Z,21.45
2018-05-25T18:44:59.538Z,21.46
2018-05-25T18:47:27.245Z,21.40
2018-05-25T18:49:54.971Z,21.40
2018-05-25T18:52:24.074Z,21.33
2018-05-25T18:54:51.668Z,21.34
2018-05-25T18:57:19.333Z,21.36
2018-05-25T18:59:46.948Z,21.26
2018-05-25T19:02:17.113Z,21.22
2018-05-25T19:04:46.130Z,21.17
2018-05-25T19:07:13.772Z,21.17
2018-05-25T19:09:41.351Z,21.17
2018-05-25T19:12:08.984Z,21.14
2018-05-25T19:14:36.643Z,21.16
2018-05-25T19:17:04.271Z,21.21
2018-05-25T19:19:33.040Z,21.24
2018-05-25T19:22:00.757Z,21.29
2018-05-25T19:24:28.381Z,21.28
2018-05-25T19:26:56.143Z,21.30
2018-05-25T19:29:24.652Z,21.31
2018-05-25T19:31:52.229Z,21.32
2018-05-25T19:34:19.913Z,21.30
2018-05-25T19:36:49.615Z,21.27
2018-05-25T19:39:17.342Z,21.29
2018-05-25T19:41:44.992Z,21.29
2018-05-25T19:44:13.331Z,21.26
2018-05-25T19:46:41.287Z,21.25
2018-05-25T19:49:09.093Z,21.27
2018-05-25T19:51:36.688Z,21.25
2018-05-25T19:54:04.285Z,21.27
2018-05-25T19:56:31.944Z,21.24
2018-05-25T19:58:59.519Z,21.28
2018-05-25T20:01:27.124Z,21.30
2018-05-25T20:03:54.804Z,21.24
2018-05-25T20:06:22.380Z,21.29
2018-05-25T20:08:50.018Z,21.30
2018-05-25T20:11:18.767Z,21.30
2018-05-25T20:13:46.434Z,21.31
2018-05-25T20:16:14.172Z,21.29
2018-05-25T20:18:41.800Z,21.26
2018-05-25T20:21:09.372Z,21.24
2018-05-25T20:23:36.949Z,21.20
2018-05-25T20:26:04.749Z,21.17
2018-05-25T20:28:32.367Z,21.19
2018-05-25T20:30:59.963Z,21.20
2018-05-25T20:33:27.614Z,21.20
2018-05-25T20:35:55.180Z,21.20
2018-05-25T20:38:22.766Z,21.23
2018-05-25T20:40:52.823Z,21.24
2018-05-25T20:43:20.441Z,21.19
2018-05-25T20:45:48.026Z,21.17
2018-05-25T20:48:15.720Z,21.19
2018-05-25T20:50:43.357Z,21.26
2018-05-25T20:53:11.001Z,21.22
2018-05-25T20:55:38.657Z,21.21
2018-05-25T20:58:06.242Z,21.23
2018-05-25T21:00:33.848Z,21.24
2018-05-25T21:03:01.584Z,21.25
2018-05-25T21:05:29.181Z,21.23
2018-05-25T21:07:56.751Z,21.23
2018-05-25T21:10:25.196Z,21.22
2018-05-25T21:12:52.834Z,21.18
2018-05-25T21:15:20.480Z,21.16
2018-05-25T21:17:50.604Z,21.12
2018-05-25T21:20:20.610Z,21.08
2018-05-25T21:22:48.269Z,21.06
2018-05-25T21:25:15.997Z,20.98
2018-05-25T21:27:43.585Z,20.94
2018-05-25T21:30:11.251Z,20.91
2018-05-25T21:32:38.904Z,20.88
2018-05-25T21:35:06.483Z,20.88
2018-05-25T21:37:34.052Z,20.88
2018-05-25T21:40:01.750Z,20.88
2018-05-25T21:42:29.328Z,20.83
2018-05-25T21:44:56.966Z,20.81
2018-05-25T21:47:24.641Z,20.80
2018-05-25T21:49:52.220Z,20.75
2018-05-25T21:52:19.796Z,20.72
2018-05-25T21:54:47.521Z,20.66
2018-05-25T21:57:15.092Z,20.62
2018-05-25T21:59:42.738Z,20.56
2018-05-25T22:02:10.382Z,20.54
2018-05-25T22:04:37.963Z,20.55
2018-05-25T22:07:05.561Z,20.53
2018-05-25T22:09:33.231Z,20.49
2018-05-25T22:12:04.083Z,20.48
2018-05-25T22:14:31.672Z,20.43
2018-05-25T22:16:59.381Z,20.45
2018-05-25T22:19:26.971Z,20.44
2018-05-25T22:21:55.415Z,20.44
2018-05-25T22:24:23.027Z,20.45
2018-05-25T22:26:50.672Z,20.46
2018-05-25T22:29:18.559Z,20.47
2018-05-25T22:31:46.252Z,20.49
2018-05-25T22:34:13.823Z,20.50
2018-05-25T22:36:41.398Z,20.53
2018-05-25T22:39:09.148Z,20.55
2018-05-25T22:41:36.739Z,20.57
2018-05-25T22:44:16.245Z,20.57
2018-05-25T22:46:55.631Z,20.57
2018-05-25T22:49:35.167Z,20.59
2018-05-25T22:52:14.644Z,20.55
2018-05-25T22:54:42.350Z,20.57
2018-05-25T22:57:09.915Z,20.54
2018-05-25T22:59:37.488Z,20.56
2018-05-25T23:02:05.184Z,20.55
2018-05-25T23:04:32.755Z,20.56
2018-05-25T23:07:00.331Z,20.58
2018-05-25T23:09:27.999Z,20.61
2018-05-25T23:11:55.563Z,20.62
2018-05-25T23:14:24.044Z,20.63
2018-05-25T23:16:51.817Z,20.65
2018-05-25T23:19:19.453Z,20.67
2018-05-25T23:21:47.076Z,20.71
2018-05-25T23:24:14.696Z,20.72
2018-05-25T23:26:42.274Z,20.74
2018-05-25T23:29:09.966Z,20.81
2018-05-25T23:31:37.652Z,20.83
2018-05-25T23:34:05.491Z,20.86
2018-05-25T23:36:33.125Z,20.87
2018-05-25T23:39:00.879Z,20.87
2018-05-25T23:41:28.513Z,20.87
2018-05-25T23:43:56.168Z,20.89
2018-05-25T23:46:23.952Z,20.91
2018-05-25T23:48:51.523Z,20.91
2018-05-25T23:51:19.156Z,20.96
2018-05-25T23:53:47.942Z,20.97
2018-05-25T23:56:15.541Z,21.01
2018-05-25T23:58:43.118Z,20.97
